createdAt,value
2023-04-02T00:00:34.819Z,102544.80
2023-04-02T00:03:21.758Z,102547.60
2023-04-02T00:05:54.553Z,102550.00
2023-04-02T00:08:40.210Z,102555.80
2023-04-02T00:11:09.107Z,102563.00
2023-04-02T00:13:48.648Z,102571.40
2023-04-02T00:16:24.336Z,102567.80
2023-04-02T00:18:57.542Z,102573.80
2023-04-02T00:21:27.737Z,102582.60
2023-04-02T00:24:01.111Z,102588.60
2023-04-02T00:26:36.604Z,102588.40
2023-04-02T00:29:10.914Z,102594.80
2023-04-02T00:31:50.917Z,102596.40
2023-04-02T00:34:23.479Z,102602.40
2023-04-02T00:36:53.076Z,102602.00
2023-04-02T00:39:41.161Z,102607.20
2023-04-02T00:42:12.424Z,102609.40
2023-04-02T00:44:43.395Z,102609.00
2023-04-02T00:47:31.168Z,102609.20
2023-04-02T00:50:18.060Z,102609.40
2023-04-02T00:52:49.484Z,102615.80
2023-04-02T00:55:34.179Z,102622.20
2023-04-02T00:58:02.152Z,102620.60
2023-04-02T01:00:35.435Z,102620.60
2023-04-02T01:03:17.161Z,102622.40
2023-04-02T01:06:10.221Z,102628.80
2023-04-02T01:09:19.299Z,102636.20
2023-04-02T01:12:40.081Z,102648.00
2023-04-02T01:15:23.684Z,102652.40
2023-04-02T01:18:17.719Z,102653.20
2023-04-02T01:20:47.208Z,102657.80
2023-04-02T01:23:48.709Z,102660.00
2023-04-02T01:26:47.516Z,102668.80
2023-04-02T01:29:44.748Z,102671.80
2023-04-02T01:32:17.689Z,102671.00
2023-04-02T01:34:48.404Z,102674.00
2023-04-02T01:37:32.179Z,102673.20
2023-04-02T01:40:36.037Z,102676.40
2023-04-02T01:43:36.622Z,102680.00
2023-04-02T01:46:25.819Z,102682.80
2023-04-02T01:48:55.927Z,102692.80
2023-04-02T01:51:35.132Z,102697.20
2023-04-02T01:54:07.955Z,102703.40
2023-04-02T01:56:35.289Z,102697.20
2023-04-02T01:59:05.238Z,102708.40
2023-04-02T02:01:59.514Z,102709.00
2023-04-02T02:04:26.755Z,102711.40
2023-04-02T02:06:57.906Z,102712.00
2023-04-02T02:09:30.372Z,102720.00
2023-04-02T02:11:59.883Z,102722.80
2023-04-02T02:14:28.913Z,102720.80
2023-04-02T02:17:01.899Z,102724.40
2023-04-02T02:19:38.807Z,102731.20
2023-04-02T02:22:20.651Z,102730.20
2023-04-02T02:24:49.475Z,102728.60
2023-04-02T02:27:21.962Z,102735.80
2023-04-02T02:30:01.979Z,102741.80
2023-04-02T02:32:32.184Z,102743.60
2023-04-02T02:35:21.069Z,102747.00
2023-04-02T02:38:01.375Z,102756.20
2023-04-02T02:40:44.772Z,102758.80
2023-04-02T02:43:16.432Z,102761.20
2023-04-02T02:45:45.628Z,102761.20
2023-04-02T02:48:20.321Z,102766.40
2023-04-02T02:50:48.675Z,102767.60
2023-04-02T02:53:24.740Z,102770.80
2023-04-02T02:56:00.829Z,102768.20
2023-04-02T02:58:32.121Z,102773.20
2023-04-02T03:00:59.126Z,102772.60
2023-04-02T03:03:31.950Z,102774.80
2023-04-02T03:06:06.779Z,102777.20
2023-04-02T03:08:45.847Z,102782.40
2023-04-02T03:11:27.613Z,102789.80
2023-04-02T03:14:06.298Z,102789.40
2023-04-02T03:16:48.495Z,102794.00
2023-04-02T03:19:30.788Z,102799.60
2023-04-02T03:22:13.405Z,102803.80
2023-04-02T03:25:00.540Z,102809.80
2023-04-02T03:27:45.946Z,102812.00
2023-04-02T03:30:29.837Z,102814.40
2023-04-02T03:33:18.095Z,102821.40
2023-04-02T03:36:27.881Z,102825.60
2023-04-02T03:39:19.757Z,102836.60
2023-04-02T03:41:54.965Z,102839.20
2023-04-02T03:44:33.050Z,102845.40
2023-04-02T03:47:18.779Z,102850.60
2023-04-02T03:50:23.038Z,102851.80
2023-04-02T03:52:50.426Z,102852.40
2023-04-02T03:55:29.486Z,102855.60
2023-04-02T03:58:07.472Z,102859.60
2023-04-02T04:01:18.145Z,102868.60
2023-04-02T04:03:57.125Z,102867.20
2023-04-02T04:06:27.086Z,102875.40
2023-04-02T04:09:10.477Z,102874.00
2023-04-02T04:12:05.312Z,102871.20
2023-04-02T04:14:40.526Z,102876.40
2023-04-02T04:17:23.978Z,102882.60
2023-04-02T04:19:59.582Z,102885.80
2023-04-02T04:22:33.293Z,102887.40
2023-04-02T04:25:20.631Z,102891.20
2023-04-02T04:28:19.274Z,102891.80
2023-04-02T04:31:48.304Z,102897.60
2023-04-02T04:34:46.186Z,102901.80
2023-04-02T04:37:28.956Z,102909.20
2023-04-02T04:40:08.737Z,102912.00
2023-04-02T04:42:41.799Z,102922.60
2023-04-02T04:45:49.297Z,102925.60
2023-04-02T04:48:33.237Z,102927.40
2023-04-02T04:51:36.897Z,102938.60
2023-04-02T04:54:03.754Z,102937.40
2023-04-02T04:56:32.170Z,102945.80
2023-04-02T04:59:32.224Z,102945.00
2023-04-02T05:02:12.641Z,102956.00
2023-04-02T05:04:42.964Z,102960.80
2023-04-02T05:07:45.423Z,102973.00
2023-04-02T05:10:51.229Z,102968.80
2023-04-02T05:13:33.467Z,102970.60
2023-04-02T05:17:00.726Z,102976.20
2023-04-02T05:19:40.977Z,102980.60
2023-04-02T05:22:30.340Z,102992.20
2023-04-02T05:25:10.825Z,102992.00
2023-04-02T05:28:10.797Z,102997.60
2023-04-02T05:31:05.190Z,103010.80
2023-04-02T05:33:35.823Z,103009.00
2023-04-02T05:36:22.407Z,103013.60
2023-04-02T05:38:53.603Z,103010.80
2023-04-02T05:41:36.099Z,103013.00
2023-04-02T05:44:42.168Z,103024.00
2023-04-02T05:47:20.128Z,103026.20
2023-04-02T05:50:25.628Z,103025.60
2023-04-02T05:53:25.739Z,103031.60
2023-04-02T05:55:59.777Z,103039.60
2023-04-02T05:58:38.520Z,103043.40
2023-04-02T06:01:48.699Z,103041.40
2023-04-02T06:04:31.422Z,103047.40
2023-04-02T06:07:08.145Z,103047.80
2023-04-02T06:09:47.133Z,103058.20
2023-04-02T06:12:40.817Z,103059.60
2023-04-02T06:15:14.936Z,103068.40
2023-04-02T06:17:48.010Z,103070.20
2023-04-02T06:20:18.407Z,103071.20
2023-04-02T06:22:57.276Z,103073.80
2023-04-02T06:25:41.963Z,103078.20
2023-04-02T06:28:17.240Z,103078.20
2023-04-02T06:30:44.355Z,103089.20
2023-04-02T06:33:12.853Z,103099.60
2023-04-02T06:35:46.594Z,103096.20
2023-04-02T06:38:30.479Z,103107.20
2023-04-02T06:41:04.591Z,103106.20
2023-04-02T06:43:39.176Z,103110.40
2023-04-02T06:46:27.715Z,103122.40
2023-04-02T06:49:08.742Z,103125.40
2023-04-02T06:51:38.359Z,103117.40
2023-04-02T06:54:06.781Z,103124.60
2023-04-02T06:56:51.166Z,103129.20
2023-04-02T06:59:19.362Z,103129.40
2023-04-02T07:02:00.321Z,103137.80
2023-04-02T07:04:27.163Z,103143.80
2023-04-02T07:06:53.584Z,103151.60
2023-04-02T07:09:27.660Z,103150.80
2023-04-02T07:11:56.538Z,103153.80
2023-04-02T07:14:23.454Z,103160.80
2023-04-02T07:16:52.023Z,103165.20
2023-04-02T07:19:22.275Z,103168.60
2023-04-02T07:21:48.942Z,103169.20
2023-04-02T07:24:15.488Z,103168.60
2023-04-02T07:26:42.337Z,103169.40
2023-04-02T07:29:15.318Z,103173.80
2023-04-02T07:31:41.949Z,103180.00
2023-04-02T07:34:10.964Z,103182.00
2023-04-02T07:36:38.371Z,103176.80
2023-04-02T07:39:05.064Z,103179.40
2023-04-02T07:41:31.624Z,103183.40
2023-04-02T07:43:58.045Z,103179.60
2023-04-02T07:46:25.244Z,103189.80
2023-04-02T07:48:52.247Z,103188.80
2023-04-02T07:51:23.607Z,103183.00
2023-04-02T07:53:54.975Z,103196.00
2023-04-02T07:56:24.304Z,103194.60
2023-04-02T07:58:51.144Z,103195.40
2023-04-02T08:01:26.039Z,103197.20
2023-04-02T08:03:55.617Z,103207.20
2023-04-02T08:06:24.415Z,103216.60
2023-04-02T08:08:54.094Z,103221.60
2023-04-02T08:11:20.520Z,103220.60
2023-04-02T08:13:48.005Z,103220.80
2023-04-02T08:16:16.243Z,103221.80
2023-04-02T08:18:42.736Z,103224.40
2023-04-02T08:21:10.517Z,103229.40
2023-04-02T08:23:37.768Z,103235.40
2023-04-02T08:26:06.281Z,103230.00
2023-04-02T08:28:34.649Z,103235.60
2023-04-02T08:31:01.567Z,103235.00
2023-04-02T08:33:28.174Z,103231.20
2023-04-02T08:35:54.630Z,103236.80
2023-04-02T08:38:22.131Z,103244.40
2023-04-02T08:40:52.841Z,103246.60
2023-04-02T08:43:52.553Z,103250.20
2023-04-02T08:46:32.607Z,103256.40
2023-04-02T08:49:09.624Z,103259.80
2023-04-02T08:51:38.983Z,103266.80
2023-04-02T08:54:24.941Z,103264.20
2023-04-02T08:57:03.602Z,103265.60
2023-04-02T08:59:38.150Z,103270.80
2023-04-02T09:03:07.778Z,103279.00
2023-04-02T09:05:42.197Z,103276.60
2023-04-02T09:08:23.745Z,103280.00
2023-04-02T09:11:06.460Z,103282.40
2023-04-02T09:13:39.594Z,103279.00
2023-04-02T09:16:11.804Z,103278.60
2023-04-02T09:18:40.950Z,103279.20
2023-04-02T09:21:34.242Z,103283.60
2023-04-02T09:24:02.858Z,103291.40
2023-04-02T09:26:34.162Z,103291.80
2023-04-02T09:29:38.714Z,103288.60
2023-04-02T09:32:48.240Z,103292.80
2023-04-02T09:35:27.086Z,103293.60
2023-04-02T09:38:29.604Z,103292.20
2023-04-02T09:41:04.568Z,103298.80
2023-04-02T09:43:37.892Z,103297.40
2023-04-02T09:46:08.807Z,103293.20
2023-04-02T09:48:44.253Z,103296.20
2023-04-02T09:51:23.342Z,103299.00
2023-04-02T09:54:19.722Z,103303.20
2023-04-02T09:57:01.015Z,103308.40
2023-04-02T09:59:33.025Z,103304.60
2023-04-02T10:02:05.340Z,103305.20
2023-04-02T10:04:47.488Z,103305.80
2023-04-02T10:07:37.170Z,103313.80
2023-04-02T10:10:47.733Z,103317.20
2023-04-02T10:13:51.184Z,103317.40
2023-04-02T10:16:50.761Z,103317.60
2023-04-02T10:19:42.556Z,103318.40
2023-04-02T10:22:18.403Z,103328.40
2023-04-02T10:24:45.531Z,103335.60
2023-04-02T10:28:02.908Z,103339.40
2023-04-02T10:31:32.959Z,103339.00
2023-04-02T10:34:10.680Z,103344.00
2023-04-02T10:36:57.273Z,103346.40
2023-04-02T10:39:35.488Z,103342.60
2023-04-02T10:42:25.666Z,103349.40
2023-04-02T10:45:09.028Z,103345.20
2023-04-02T10:47:59.796Z,103359.60
2023-04-02T10:50:44.038Z,103363.60
2023-04-02T10:53:18.529Z,103361.60
2023-04-02T10:55:57.936Z,103360.60
2023-04-02T10:58:32.875Z,103365.20
2023-04-02T11:01:14.041Z,103361.40
2023-04-02T11:03:57.729Z,103371.20
2023-04-02T11:06:41.481Z,103370.60
2023-04-02T11:09:24.238Z,103370.00
2023-04-02T11:12:04.394Z,103374.00
2023-04-02T11:14:32.641Z,103380.00
2023-04-02T11:17:03.212Z,103376.20
2023-04-02T11:19:32.990Z,103381.00
2023-04-02T11:22:17.018Z,103381.00
2023-04-02T11:24:50.622Z,103384.60
2023-04-02T11:27:32.133Z,103386.60
2023-04-02T11:30:23.750Z,103384.20
2023-04-02T11:32:51.295Z,103378.80
2023-04-02T11:35:30.329Z,103381.20
2023-04-02T11:38:09.886Z,103380.20
2023-04-02T11:40:56.299Z,103388.20
2023-04-02T11:43:32.528Z,103378.40
2023-04-02T11:46:15.899Z,103381.20
2023-04-02T11:48:43.019Z,103385.80
2023-04-02T11:51:31.194Z,103386.00
2023-04-02T11:53:57.986Z,103383.00
2023-04-02T11:56:51.243Z,103389.40
2023-04-02T11:59:47.749Z,103389.40
2023-04-02T12:02:27.333Z,103391.20
2023-04-02T12:05:21.005Z,103392.40
2023-04-02T12:08:18.445Z,103394.40
2023-04-02T12:10:59.914Z,103396.40
2023-04-02T12:13:42.154Z,103398.80
2023-04-02T12:16:14.106Z,103401.40
2023-04-02T12:18:47.515Z,103407.00
2023-04-02T12:21:18.699Z,103403.40
2023-04-02T12:23:52.304Z,103401.00
2023-04-02T12:26:41.722Z,103401.80
2023-04-02T12:29:30.085Z,103399.40
2023-04-02T12:32:00.340Z,103401.20
2023-04-02T12:34:30.509Z,103401.00
2023-04-02T12:37:27.311Z,103402.20
2023-04-02T12:40:00.747Z,103406.40
2023-04-02T12:42:37.170Z,103406.20
2023-04-02T12:45:06.197Z,103400.80
2023-04-02T12:47:34.829Z,103402.60
2023-04-02T12:50:02.032Z,103402.00
2023-04-02T12:52:29.775Z,103403.60
2023-04-02T12:55:00.121Z,103408.40
2023-04-02T12:57:26.746Z,103403.80
2023-04-02T13:00:21.776Z,103402.20
2023-04-02T13:02:58.086Z,103404.60
2023-04-02T13:05:56.703Z,103409.20
2023-04-02T13:08:30.136Z,103406.00
2023-04-02T13:11:04.681Z,103400.20
2023-04-02T13:13:41.332Z,103401.20
2023-04-02T13:16:16.483Z,103400.40
2023-04-02T13:18:48.639Z,103407.60
2023-04-02T13:21:18.807Z,103408.80
2023-04-02T13:23:46.564Z,103412.20
2023-04-02T13:26:22.115Z,103413.80
2023-04-02T13:29:04.081Z,103421.00
2023-04-02T13:31:33.329Z,103420.80
2023-04-02T13:34:03.644Z,103420.40
2023-04-02T13:36:32.131Z,103419.40
2023-04-02T13:38:58.602Z,103419.00
2023-04-02T13:41:31.927Z,103424.20
2023-04-02T13:44:04.014Z,103421.00
2023-04-02T13:46:34.525Z,103418.40
2023-04-02T13:49:02.426Z,103415.60
2023-04-02T13:51:50.306Z,103419.60
2023-04-02T13:54:30.890Z,103421.80
2023-04-02T13:56:57.450Z,103422.20
2023-04-02T13:59:29.664Z,103418.20
2023-04-02T14:02:23.276Z,103423.20
2023-04-02T14:05:06.261Z,103426.60
2023-04-02T14:08:10.985Z,103422.40
2023-04-02T14:10:57.752Z,103421.00
2023-04-02T14:13:47.745Z,103415.40
2023-04-02T14:16:50.111Z,103420.60
2023-04-02T14:19:28.350Z,103417.60
2023-04-02T14:22:26.111Z,103418.80
2023-04-02T14:25:41.743Z,103415.60
2023-04-02T14:28:43.582Z,103422.80
2023-04-02T14:31:27.170Z,103422.20
2023-04-02T14:34:30.278Z,103421.40
2023-04-02T14:37:13.790Z,103419.00
2023-04-02T14:40:03.554Z,103424.80
2023-04-02T14:42:56.364Z,103418.80
2023-04-02T14:46:03.874Z,103417.40
2023-04-02T14:49:01.526Z,103417.20
2023-04-02T14:51:44.521Z,103417.20
2023-04-02T14:54:38.342Z,103421.00
2023-04-02T14:57:48.597Z,103420.60
2023-04-02T15:00:41.573Z,103428.20
2023-04-02T15:03:19.412Z,103428.40
2023-04-02T15:05:57.579Z,103436.40
2023-04-02T15:08:30.652Z,103437.00
2023-04-02T15:11:26.874Z,103434.80
2023-04-02T15:14:06.311Z,103436.00
2023-04-02T15:16:35.899Z,103437.00
2023-04-02T15:19:10.834Z,103438.20
2023-04-02T15:22:21.836Z,103441.80
2023-04-02T15:25:23.056Z,103440.00
2023-04-02T15:28:26.001Z,103435.00
2023-04-02T15:31:03.182Z,103435.40
2023-04-02T15:33:50.917Z,103437.00
2023-04-02T15:36:41.274Z,103435.00
2023-04-02T15:39:42.591Z,103437.60
2023-04-02T15:42:30.306Z,103436.00
2023-04-02T15:45:31.649Z,103437.00
2023-04-02T15:48:19.323Z,103437.40
2023-04-02T15:50:49.010Z,103440.20
2023-04-02T15:53:36.978Z,103441.00
2023-04-02T15:56:39.652Z,103440.40
2023-04-02T15:59:37.279Z,103439.80
2023-04-02T16:02:29.226Z,103441.80
2023-04-02T16:05:44.834Z,103442.60
2023-04-02T16:08:56.640Z,103443.20
2023-04-02T16:11:26.638Z,103443.40
2023-04-02T16:14:13.907Z,103442.60
2023-04-02T16:16:48.009Z,103445.40
2023-04-02T16:19:39.998Z,103445.40
2023-04-02T16:22:25.985Z,103447.20
2023-04-02T16:25:23.730Z,103450.00
2023-04-02T16:28:12.367Z,103447.20
2023-04-02T16:31:25.440Z,103448.60
2023-04-02T16:35:01.784Z,103448.40
2023-04-02T16:37:55.814Z,103450.00
2023-04-02T16:41:09.032Z,103451.40
2023-04-02T16:44:07.143Z,103454.60
2023-04-02T16:47:16.535Z,103453.00
2023-04-02T16:50:33.148Z,103458.40
2023-04-02T16:53:58.471Z,103456.60
2023-04-02T16:56:56.909Z,103459.80
2023-04-02T16:59:58.698Z,103467.60
2023-04-02T17:03:01.767Z,103470.60
2023-04-02T17:06:06.942Z,103472.40
2023-04-02T17:08:45.778Z,103477.80
2023-04-02T17:11:26.221Z,103477.40
2023-04-02T17:14:09.199Z,103482.00
2023-04-02T17:16:44.808Z,103479.00
2023-04-02T17:19:19.195Z,103477.40
2023-04-02T17:21:55.051Z,103473.20
2023-04-02T17:24:27.740Z,103470.00
2023-04-02T17:27:36.500Z,103471.40
2023-04-02T17:30:20.452Z,103469.60
2023-04-02T17:32:48.402Z,103466.80
2023-04-02T17:35:49.593Z,103469.00
2023-04-02T17:38:36.930Z,103469.40
2023-04-02T17:41:43.431Z,103471.20
2023-04-02T17:44:42.997Z,103475.60
2023-04-02T17:47:18.821Z,103458.40
2023-04-02T17:50:04.118Z,103462.60
2023-04-02T17:52:40.926Z,103466.60
2023-04-02T17:55:51.138Z,103463.60
2023-04-02T17:59:13.147Z,103462.80
2023-04-02T18:02:13.257Z,103471.20
2023-04-02T18:05:10.055Z,103473.00
2023-04-02T18:08:18.152Z,103473.80
2023-04-02T18:11:32.642Z,103479.00
2023-04-02T18:14:18.967Z,103484.00
2023-04-02T18:17:08.323Z,103479.00
2023-04-02T18:19:52.806Z,103477.60
2023-04-02T18:22:44.127Z,103478.80
2023-04-02T18:25:29.144Z,103479.20
2023-04-02T18:28:17.609Z,103483.20
2023-04-02T18:31:13.110Z,103483.80
2023-04-02T18:34:32.770Z,103481.20
2023-04-02T18:37:20.680Z,103485.80
2023-04-02T18:40:21.701Z,103488.40
2023-04-02T18:43:24.635Z,103485.80
2023-04-02T18:46:41.744Z,103482.60
2023-04-02T18:49:29.433Z,103484.60
2023-04-02T18:52:02.672Z,103489.40
2023-04-02T18:54:35.642Z,103496.80
2023-04-02T18:57:27.841Z,103497.00
2023-04-02T19:00:26.908Z,103500.00
2023-04-02T19:03:16.617Z,103502.60
2023-04-02T19:06:14.886Z,103503.00
2023-04-02T19:08:48.806Z,103502.60
2023-04-02T19:11:22.637Z,103510.80
2023-04-02T19:13:50.731Z,103507.80
2023-04-02T19:16:23.560Z,103508.40
2023-04-02T19:19:22.805Z,103510.60
2023-04-02T19:22:41.338Z,103502.00
2023-04-02T19:25:33.784Z,103503.00
2023-04-02T19:28:49.510Z,103504.60
2023-04-02T19:31:37.877Z,103509.60
2023-04-02T19:34:26.025Z,103513.20
2023-04-02T19:37:30.335Z,103521.00
2023-04-02T19:40:14.634Z,103530.80
2023-04-02T19:42:57.787Z,103534.40
2023-04-02T19:45:38.190Z,103540.40
2023-04-02T19:48:29.339Z,103542.60
2023-04-02T19:50:56.354Z,103551.00
2023-04-02T19:53:24.140Z,103551.20
2023-04-02T19:55:51.125Z,103548.40
2023-04-02T19:58:34.563Z,103553.60
2023-04-02T20:01:04.357Z,103554.80
2023-04-02T20:03:31.777Z,103560.20
2023-04-02T20:05:59.057Z,103554.80
2023-04-02T20:08:27.312Z,103563.40
2023-04-02T20:10:58.059Z,103558.20
2023-04-02T20:13:25.947Z,103559.80
2023-04-02T20:16:00.564Z,103559.00
2023-04-02T20:18:28.755Z,103560.40
2023-04-02T20:20:57.217Z,103568.80
2023-04-02T20:23:25.097Z,103574.00
2023-04-02T20:25:56.925Z,103573.80
2023-04-02T20:28:26.445Z,103573.80
2023-04-02T20:31:16.045Z,103577.00
2023-04-02T20:33:46.713Z,103574.20
2023-04-02T20:36:16.869Z,103573.80
2023-04-02T20:38:44.742Z,103579.00
2023-04-02T20:41:17.333Z,103582.80
2023-04-02T20:43:45.353Z,103585.80
2023-04-02T20:46:15.733Z,103591.20
2023-04-02T20:48:48.583Z,103590.20
2023-04-02T20:51:16.752Z,103592.20
2023-04-02T20:53:45.966Z,103595.60
2023-04-02T20:56:16.569Z,103594.60
2023-04-02T20:58:44.647Z,103598.20
2023-04-02T21:01:25.609Z,103600.60
2023-04-02T21:04:00.514Z,103599.60
2023-04-02T21:06:31.040Z,103602.00
2023-04-02T21:08:58.635Z,103602.40
2023-04-02T21:11:25.520Z,103604.40
2023-04-02T21:13:52.721Z,103607.20
2023-04-02T21:16:24.745Z,103610.20
2023-04-02T21:18:53.021Z,103617.40
2023-04-02T21:21:22.138Z,103612.60
2023-04-02T21:23:59.135Z,103612.40
2023-04-02T21:26:38.751Z,103612.40
2023-04-02T21:29:06.688Z,103606.60
2023-04-02T21:31:38.782Z,103607.00
2023-04-02T21:34:08.733Z,103613.80
2023-04-02T21:36:40.002Z,103617.80
2023-04-02T21:39:17.508Z,103619.00
2023-04-02T21:41:49.476Z,103617.80
2023-04-02T21:44:20.752Z,103625.20
2023-04-02T21:46:49.343Z,103628.80
2023-04-02T21:49:21.362Z,103627.00
2023-04-02T21:51:51.287Z,103622.60
2023-04-02T21:54:20.756Z,103619.40
2023-04-02T21:56:49.168Z,103623.20
2023-04-02T21:59:18.745Z,103625.80
2023-04-02T22:01:49.261Z,103625.40
2023-04-02T22:04:25.383Z,103628.00
2023-04-02T22:06:53.712Z,103625.40
2023-04-02T22:09:24.411Z,103627.20
2023-04-02T22:11:55.602Z,103628.40
2023-04-02T22:14:22.501Z,103629.80
2023-04-02T22:16:49.586Z,103636.00
2023-04-02T22:19:20.997Z,103637.20
2023-04-02T22:21:48.024Z,103638.60
2023-04-02T22:24:18.237Z,103638.20
2023-04-02T22:26:46.573Z,103636.60
2023-04-02T22:29:13.831Z,103640.00
2023-04-02T22:31:44.767Z,103638.60
2023-04-02T22:34:11.762Z,103640.80
2023-04-02T22:36:38.271Z,103646.20
2023-04-02T22:39:11.817Z,103648.60
2023-04-02T22:41:41.359Z,103652.20
2023-04-02T22:44:13.762Z,103658.60
2023-04-02T22:46:41.240Z,103647.40
2023-04-02T22:49:07.882Z,103647.40
2023-04-02T22:51:35.190Z,103651.20
2023-04-02T22:54:02.247Z,103654.60
2023-04-02T22:56:31.480Z,103656.40
2023-04-02T22:58:58.328Z,103649.60
2023-04-02T23:01:33.255Z,103661.20
2023-04-02T23:04:00.107Z,103659.80
2023-04-02T23:06:30.265Z,103674.40
2023-04-02T23:08:58.347Z,103670.60
2023-04-02T23:11:27.448Z,103674.20
2023-04-02T23:13:57.731Z,103681.80
2023-04-02T23:16:30.205Z,103693.20
2023-04-02T23:18:57.749Z,103700.60
2023-04-02T23:21:25.774Z,103696.40
2023-04-02T23:23:53.270Z,103702.80
2023-04-02T23:26:32.111Z,103702.00
2023-04-02T23:29:00.179Z,103701.00
2023-04-02T23:31:27.920Z,103703.20
2023-04-02T23:33:54.793Z,103705.00
2023-04-02T23:36:29.161Z,103706.20
2023-04-02T23:39:00.603Z,103702.20
2023-04-02T23:41:29.219Z,103703.80
2023-04-02T23:44:00.500Z,103712.20
2023-04-02T23:46:29.077Z,103715.20
2023-04-02T23:48:57.856Z,103722.40
2023-04-02T23:51:26.485Z,103725.00
2023-04-02T23:53:57.047Z,103722.80
2023-04-02T23:56:25.236Z,103718.60
2023-04-02T23:58:54.614Z,103728.60
